KORD

Chicago O'hare International Airport

Chicago, Illinois, USA
KORD 192334Z 2000/2106 22012G19KT P6SM SKC TEMPO 2000/2001 OVC015 FM200300 29012KT P6SM SKC FM201300 29014G22KT P6SM FEW060 FM201500 32022G32KT P6SM VCSH BKN060 PROB30 2017/2021 32025G40KT 4SM -SHRAGS OVC040 FM202230 33015G25KT P6SM SCT050 FM210300 32012KT P6SM SKC
Issued Valid From Valid To
Oct-19 @ 23:34 UTC
(3 hours ago)
Oct-20 @ 00:00 UTC
(3 hours ago)
Oct-21 @ 06:00 UTC
(-1 days ago)
Oct-20 @ 00:00 to Oct-20 @ 03:00
KORD 192334Z 2000/2106 22012G19KT P6SM SKC
Wind Visibility Clouds
220° at 12 knots
 Gusting to 19 knots
Greater than 6 miles
  • Clear skies
Expired Click to View Oct-20 @ 00:00 to Oct-20 @ 01:00
TEMPO 2000/2001 OVC015
Clouds
  • Overcast at 1,500' AGL
From Oct-20 @ 03:00 to Oct-20 @ 13:00
FM200300 29012KT P6SM SKC
Wind Visibility Clouds
290° at 12 knots Greater than 6 miles
  • Clear skies
From Oct-20 @ 13:00 to Oct-20 @ 15:00
FM201300 29014G22KT P6SM FEW060
Wind Visibility Clouds
290° at 14 knots
 Gusting to 22 knots
Greater than 6 miles
  • Few at 6,000' AGL
From Oct-20 @ 15:00 to Oct-20 @ 22:30
FM201500 32022G32KT P6SM VCSH BKN060
Wind Visibility Clouds
320° at 22 knots
 Gusting to 32 knots
Greater than 6 miles
  • Broken at 6,000' AGL
Probable  (Probability 30%) Oct-20 @ 17:00 to Oct-20 @ 21:00
PROB30 2017/2021 32025G40KT 4SM -SHRAGS OVC040
Wind Visibility Clouds Conditions
320° at 25 knots
 Gusting to 40 knots
4 miles
  • Overcast at 4,000' AGL
  • Light Rain
  • Light Small hail
From Oct-20 @ 22:30 to Oct-21 @ 03:00
FM202230 33015G25KT P6SM SCT050
Wind Visibility Clouds
330° at 15 knots
 Gusting to 25 knots
Greater than 6 miles
  • Scattered at 5,000' AGL
From Oct-21 @ 03:00 to Oct-21 @ 06:00
FM210300 32012KT P6SM SKC
Wind Visibility Clouds
320° at 12 knots Greater than 6 miles
  • Clear skies
KORD 192334Z 2000/2106 22012G19KT P6SM SKC TEMPO 2000/2001 OVC015 FM200300 29012KT P6SM SKC FM201300 29014G22KT P6SM FEW060 FM201500 32022G32KT P6SM VCSH BKN060 PROB30 2017/2021 32025G40KT 4SM -SHRAGS OVC040 FM202230 33015G25KT P6SM SCT050 FM210300 32012KT P6SM SKC
Issued Oct-19 @ 23:34 UTC
(3 hours ago)
Valid From Oct-20 @ 00:00 UTC
(3 hours ago)
Valid To Oct-21 @ 06:00 UTC
(-1 days ago)
Oct-20 @ 00:00 - Oct-20 @ 03:00
Wind Visibility
220° at 12 knots
 Gusting to 19 knots
Greater than 6 miles
Clouds
  • Clear skies
Oct-20 @ 00:00 - Oct-20 @ 01:00
Clouds
  • Overcast at 1,500' AGL
From Oct-20 @ 03:00 - Oct-20 @ 13:00
Wind Visibility
290° at 12 knots Greater than 6 miles
Clouds
  • Clear skies
From Oct-20 @ 13:00 - Oct-20 @ 15:00
Wind Visibility
290° at 14 knots
 Gusting to 22 knots
Greater than 6 miles
Clouds
  • Few at 6,000' AGL
From Oct-20 @ 15:00 - Oct-20 @ 22:30
Wind Visibility
320° at 22 knots
 Gusting to 32 knots
Greater than 6 miles
Clouds
  • Broken at 6,000' AGL
Probability 30% Probable Oct-20 @ 17:00 - Oct-20 @ 21:00
Wind Visibility
320° at 25 knots
 Gusting to 40 knots
4 miles
Clouds
  • Overcast at 4,000' AGL
Conditions
  • Light Rain
  • Light Small hail
From Oct-20 @ 22:30 - Oct-21 @ 03:00
Wind Visibility
330° at 15 knots
 Gusting to 25 knots
Greater than 6 miles
Clouds
  • Scattered at 5,000' AGL
From Oct-21 @ 03:00 - Oct-21 @ 06:00
Wind Visibility
320° at 12 knots Greater than 6 miles
Clouds
  • Clear skies